Time;durP1;ratioP1;P1;durP2;ratioP2;P2;SDS_P1;SDS_P2;PMS_P1;PMS_P2;Temp;Humidity;BMP_temperature;BMP_pressure;BME280_temperature;BME280_humidity;BME280_pressure;Samples;Min_cycle;Max_cycle;Signal;HPM_P1;HPM_P2
2023/09/01 00:00:43;;;;;;;6.57;4.93;;;;;;;12.75;92.67;100487.47;5092430;28;20212;-81
2023/09/01 00:03:09;;;;;;;5.10;4.60;;;;;;;12.73;92.96;100484.06;5080494;28;20311;-81
2023/09/01 00:05:37;;;;;;;6.43;4.40;;;;;;;12.73;92.76;100484.06;5090315;28;20196;-81
2023/09/01 00:08:05;;;;;;;5.73;4.70;;;;;;;12.73;92.78;100489.41;5091254;28;20645;-81
2023/09/01 00:10:31;;;;;;;5.63;4.23;;;;;;;12.71;92.41;100495.84;5088682;28;20204;-81
2023/09/01 00:12:59;;;;;;;5.33;4.73;;;;;;;12.64;92.18;100492.78;5091208;28;20727;-82
2023/09/01 00:15:26;;;;;;;5.40;4.73;;;;;;;12.57;91.97;100487.97;5087628;28;20223;-82
2023/09/01 00:17:53;;;;;;;4.50;4.10;;;;;;;12.51;92.00;100487.50;5089355;28;20215;-81
2023/09/01 00:20:20;;;;;;;6.57;5.07;;;;;;;12.44;92.13;100483.56;5090153;28;20235;-81
2023/09/01 00:22:47;;;;;;;5.87;4.70;;;;;;;12.39;92.62;100485.72;5090132;28;20215;-80
2023/09/01 00:25:13;;;;;;;6.00;5.00;;;;;;;12.34;92.65;100487.88;5087716;28;20214;-81
2023/09/01 00:27:39;;;;;;;4.90;4.33;;;;;;;12.29;92.82;100490.03;5091552;28;20211;-80
2023/09/01 00:30:08;;;;;;;4.93;4.53;;;;;;;12.23;93.22;100485.13;5091518;28;20241;-83
2023/09/01 00:32:35;;;;;;;4.73;4.33;;;;;;;12.18;93.13;100489.97;5088730;28;20238;-82
2023/09/01 00:35:03;;;;;;;5.40;4.90;;;;;;;12.12;93.38;100487.72;5089421;28;20240;-83
2023/09/01 00:37:30;;;;;;;5.33;4.87;;;;;;;12.07;93.75;100489.88;5088439;28;20607;-82
2023/09/01 00:39:56;;;;;;;5.33;4.83;;;;;;;12.02;93.62;100481.34;5093611;28;20583;-82
2023/09/01 00:42:23;;;;;;;5.13;4.63;;;;;;;11.95;93.96;100486.28;5090328;28;20200;-82
2023/09/01 00:44:50;;;;;;;5.57;5.03;;;;;;;11.92;94.37;100473.16;5093482;28;20237;-83
2023/09/01 00:47:17;;;;;;;6.07;5.17;;;;;;;11.86;94.55;100470.06;5091937;28;20218;-83
2023/09/01 00:49:44;;;;;;;4.97;4.47;;;;;;;11.83;94.55;100471.97;5088962;28;20302;-84
2023/09/01 00:52:12;;;;;;;5.27;4.77;;;;;;;11.78;94.50;100468.81;5090824;28;20550;-83
2023/09/01 00:54:38;;;;;;;5.97;5.40;;;;;;;11.73;95.27;100465.56;5088358;28;20203;-83
2023/09/01 00:57:05;;;;;;;5.50;4.97;;;;;;;11.76;96.31;100472.53;5091116;28;20203;-82
2023/09/01 00:59:32;;;;;;;5.93;5.17;;;;;;;11.75;96.72;100477.00;5089355;28;20267;-83
2023/09/01 01:01:59;;;;;;;5.40;4.87;;;;;;;11.74;96.94;100464.59;5090808;28;20206;-82
2023/09/01 01:04:26;;;;;;;7.07;5.03;;;;;;;11.76;97.60;100470.72;5090852;28;20239;-82
2023/09/01 01:06:59;;;;;;;7.57;4.77;;;;;;;11.78;98.20;100465.28;5090261;28;20204;-82
2023/09/01 01:09:39;;;;;;;6.60;5.77;;;;;;;11.82;98.82;100464.94;5087802;28;20240;-83
2023/09/01 01:12:10;;;;;;;6.97;5.37;;;;;;;11.87;99.43;100466.44;5090548;28;20580;-82
2023/09/01 01:14:40;;;;;;;5.93;4.97;;;;;;;11.89;99.39;100465.34;5087359;28;20199;-82
2023/09/01 01:17:09;;;;;;;5.13;4.70;;;;;;;11.87;98.10;100461.94;5083843;28;20212;-82
2023/09/01 01:19:50;;;;;;;6.97;4.90;;;;;;;11.83;97.86;100461.31;5085893;28;20283;-82
2023/09/01 01:22:21;;;;;;;6.10;4.60;;;;;;;11.80;97.81;100466.03;5083845;28;20204;-83
2023/09/01 01:24:49;;;;;;;6.70;4.90;;;;;;;11.77;97.70;100477.78;5088208;28;20308;-82
2023/09/01 01:27:18;;;;;;;5.87;5.27;;;;;;;11.75;97.77;100478.81;5081256;28;20241;-82
2023/09/01 01:29:44;;;;;;;5.70;4.80;;;;;;;11.74;98.05;100483.28;5086394;28;20577;-82
2023/09/01 01:32:11;;;;;;;6.97;4.90;;;;;;;11.73;98.04;100491.41;5087897;28;20200;-82
2023/09/01 01:34:39;;;;;;;5.70;5.10;;;;;;;11.73;98.62;100483.38;5087593;28;20222;-82
2023/09/01 01:37:13;;;;;;;6.43;5.20;;;;;;;11.73;98.81;100488.72;5089740;28;20212;-82
2023/09/01 01:39:42;;;;;;;5.07;4.57;;;;;;;11.74;98.52;100493.09;5090500;28;20225;-83
2023/09/01 01:42:11;;;;;;;5.97;5.33;;;;;;;11.73;98.65;100491.41;5087175;28;20228;-83
2023/09/01 01:44:42;;;;;;;5.27;4.77;;;;;;;11.74;98.70;100498.44;5088245;28;20672;-83
2023/09/01 01:47:11;;;;;;;5.43;4.93;;;;;;;11.71;98.98;100494.16;5090724;28;20211;-83
2023/09/01 01:49:37;;;;;;;6.63;5.30;;;;;;;11.73;98.93;100488.72;5079760;28;20700;-84
2023/09/01 01:52:05;;;;;;;6.63;5.70;;;;;;;11.69;99.63;100485.41;5084387;28;20780;-83
2023/09/01 01:54:32;;;;;;;5.40;4.90;;;;;;;11.68;99.33;100482.84;5089631;28;20207;-82
2023/09/01 01:56:59;;;;;;;5.90;4.87;;;;;;;11.66;99.72;100484.78;5090210;28;20215;-82
2023/09/01 01:59:26;;;;;;;5.80;5.03;;;;;;;11.64;99.84;100495.59;5089973;28;20231;-82
2023/09/01 02:01:53;;;;;;;5.93;4.67;;;;;;;11.63;100.00;100491.19;5084824;28;20212;-83
2023/09/01 02:04:18;;;;;;;5.93;5.10;;;;;;;11.61;100.00;100495.78;5088505;28;20885;-83
2023/09/01 02:06:45;;;;;;;6.50;5.03;;;;;;;11.61;100.00;100498.47;5088741;28;20241;-82
2023/09/01 02:09:11;;;;;;;5.90;5.13;;;;;;;11.60;100.00;100496.75;5087298;28;20230;-82
2023/09/01 02:11:38;;;;;;;5.40;4.90;;;;;;;11.58;100.00;100488.00;5087877;28;20203;-83
2023/09/01 02:14:04;;;;;;;6.23;5.60;;;;;;;11.58;100.00;100485.31;5086898;28;20204;-83
2023/09/01 02:16:32;;;;;;;5.93;5.40;;;;;;;11.57;100.00;100482.75;5087085;28;20250;-83
2023/09/01 02:18:59;;;;;;;14.57;6.40;;;;;;;11.60;100.00;100488.75;5094603;28;20587;-83
2023/09/01 02:21:26;;;;;;;6.03;4.93;;;;;;;11.58;100.00;100488.00;5086386;28;20203;-82
2023/09/01 02:23:53;;;;;;;5.00;4.60;;;;;;;11.59;100.00;100491.50;5088280;28;20285;-83
2023/09/01 02:26:19;;;;;;;5.90;4.80;;;;;;;11.58;100.00;100490.66;5088082;28;20209;-83
2023/09/01 02:28:46;;;;;;;7.10;5.60;;;;;;;11.57;100.00;100494.28;5089417;28;20227;-83
2023/09/01 02:31:14;;;;;;;6.70;5.27;;;;;;;11.58;100.00;100488.00;5086540;28;20621;-83
2023/09/01 02:33:42;;;;;;;7.27;5.17;;;;;;;11.58;100.00;100497.81;5087420;28;20667;-83
2023/09/01 02:36:26;;;;;;;6.80;5.37;;;;;;;11.60;100.00;100503.91;5087927;28;20196;-82
2023/09/01 02:38:53;;;;;;;6.20;5.60;;;;;;;11.58;100.00;100493.34;5090916;28;20238;-83
2023/09/01 02:41:19;;;;;;;7.90;5.43;;;;;;;11.59;100.00;100500.38;5094024;28;20207;-83
2023/09/01 02:43:46;;;;;;;7.83;6.00;;;;;;;11.58;100.00;100498.66;5090101;28;20569;-82
2023/09/01 02:46:13;;;;;;;6.50;5.23;;;;;;;11.56;100.00;100502.41;5093969;28;20208;-83
2023/09/01 02:48:39;;;;;;;5.57;4.83;;;;;;;11.52;100.00;100508.91;5093587;28;20704;-82
2023/09/01 02:51:07;;;;;;;7.13;5.77;;;;;;;11.49;100.00;100500.16;5085096;28;20215;-84
2023/09/01 02:53:34;;;;;;;6.00;5.20;;;;;;;11.49;100.00;100500.16;5092184;28;20576;-85
2023/09/01 02:56:01;;;;;;;7.30;5.47;;;;;;;11.49;100.00;100499.28;5093812;28;20643;-83
2023/09/01 02:58:27;;;;;;;5.93;5.33;;;;;;;11.48;100.00;100503.78;5089081;28;20235;-83
2023/09/01 03:00:54;;;;;;;5.27;4.80;;;;;;;11.48;100.00;100500.25;5091234;28;20216;-83
2023/09/01 03:03:20;;;;;;;6.10;5.50;;;;;;;11.47;100.00;100503.88;5092552;28;20214;-83
2023/09/01 03:05:48;;;;;;;6.70;5.60;;;;;;;11.47;100.00;100496.72;5089714;28;20239;-83
2023/09/01 03:08:18;;;;;;;6.57;5.90;;;;;;;11.48;100.00;100502.91;5090284;28;20209;-84
2023/09/01 03:10:45;;;;;;;5.97;5.43;;;;;;;11.48;100.00;100497.59;5095107;28;20212;-83
2023/09/01 03:13:11;;;;;;;6.20;5.13;;;;;;;11.47;100.00;100495.88;5093442;28;20197;-83
2023/09/01 03:15:40;;;;;;;8.33;6.00;;;;;;;11.48;100.00;100494.91;5094714;28;20342;-83
2023/09/01 03:18:06;;;;;;;6.23;5.57;;;;;;;11.47;100.00;100493.22;5095317;28;20592;-83
2023/09/01 03:20:34;;;;;;;6.20;5.60;;;;;;;11.45;100.00;100490.69;5098522;28;20231;-83
2023/09/01 03:23:00;;;;;;;6.73;5.50;;;;;;;11.45;100.00;100500.50;5094185;28;20213;-83
2023/09/01 03:25:28;;;;;;;5.70;5.10;;;;;;;11.43;100.00;100495.25;5094678;28;20704;-83
2023/09/01 03:27:55;;;;;;;5.73;5.23;;;;;;;11.43;100.00;100503.25;5095600;28;20676;-83
2023/09/01 03:30:21;;;;;;;7.73;6.00;;;;;;;11.38;100.00;100499.19;5094435;28;20589;-83
2023/09/01 03:32:48;;;;;;;6.10;5.50;;;;;;;11.36;100.00;100509.09;5098257;28;20224;-83
2023/09/01 03:35:14;;;;;;;6.40;5.30;;;;;;;11.33;100.00;100504.84;5099083;28;20203;-83
2023/09/01 03:37:41;;;;;;;7.23;5.80;;;;;;;11.31;100.00;100505.88;5095941;28;20198;-83
2023/09/01 03:40:09;;;;;;;6.00;5.50;;;;;;;11.30;100.00;100506.84;5095931;28;20269;-83
2023/09/01 03:42:37;;;;;;;6.77;5.77;;;;;;;11.29;100.00;100510.47;5095899;28;20227;-82
2023/09/01 03:45:04;;;;;;;6.80;6.20;;;;;;;11.27;100.00;100518.59;5095609;28;20246;-82
2023/09/01 03:47:31;;;;;;;6.90;5.23;;;;;;;11.27;100.00;100518.59;5092998;28;20970;-83
2023/09/01 03:49:57;;;;;;;7.63;5.97;;;;;;;11.25;100.00;100509.00;5094336;28;20253;-83
2023/09/01 03:52:24;;;;;;;5.77;5.27;;;;;;;11.24;100.00;100504.63;5091610;28;20800;-83
2023/09/01 03:54:50;;;;;;;6.37;5.77;;;;;;;11.24;100.00;100501.97;5097076;28;20202;-83
2023/09/01 03:57:17;;;;;;;7.47;5.73;;;;;;;11.25;100.00;100511.66;5086497;28;20209;-83
2023/09/01 03:59:44;;;;;;;5.27;4.77;;;;;;;11.19;100.00;100506.75;5092678;28;20221;-82
2023/09/01 04:02:11;;;;;;;6.43;5.33;;;;;;;11.09;100.00;100509.19;5090502;28;20198;-83
2023/09/01 04:04:38;;;;;;;5.33;4.83;;;;;;;11.03;100.00;100514.94;5093970;28;20226;-83
2023/09/01 04:07:06;;;;;;;6.23;5.53;;;;;;;10.98;100.00;100515.22;5087099;28;20205;-83
2023/09/01 04:09:32;;;;;;;5.70;5.20;;;;;;;10.95;100.00;100509.25;5088558;28;20229;-83
2023/09/01 04:11:59;;;;;;;6.30;5.70;;;;;;;10.94;100.00;100512.84;5089259;28;20206;-83
2023/09/01 04:14:25;;;;;;;6.67;6.00;;;;;;;10.92;100.00;100513.00;5092635;28;20207;-82
2023/09/01 04:16:53;;;;;;;6.43;5.83;;;;;;;10.91;100.00;100519.28;5091641;28;20209;-83
2023/09/01 04:19:19;;;;;;;7.17;6.50;;;;;;;10.90;100.00;100514.91;5083053;28;20225;-83
2023/09/01 04:21:46;;;;;;;5.80;5.30;;;;;;;10.87;100.00;100512.44;5091219;28;20615;-83
2023/09/01 04:24:12;;;;;;;7.27;6.00;;;;;;;10.85;100.00;100514.34;5094474;28;20229;-84
2023/09/01 04:26:39;;;;;;;7.27;5.87;;;;;;;10.84;100.00;100517.09;5092353;28;20213;-84
2023/09/01 04:29:06;;;;;;;9.43;6.37;;;;;;;10.79;100.00;100515.59;5088347;28;20232;-84
2023/09/01 04:31:33;;;;;;;6.23;5.67;;;;;;;10.77;100.00;100516.66;5090327;28;20228;-83
2023/09/01 04:34:01;;;;;;;7.63;6.03;;;;;;;10.75;100.00;100524.75;5094187;28;20203;-83
2023/09/01 04:36:27;;;;;;;8.17;6.97;;;;;;;10.75;100.00;100527.41;5090712;28;20203;-83
2023/09/01 04:38:54;;;;;;;7.63;6.70;;;;;;;10.75;100.00;100526.53;5089044;28;20228;-82
2023/09/01 04:41:20;;;;;;;8.57;6.37;;;;;;;10.73;100.00;100532.00;5085982;28;20198;-83
2023/09/01 04:43:47;;;;;;;7.53;5.97;;;;;;;10.74;100.00;100532.84;5086159;28;20666;-83
2023/09/01 04:46:13;;;;;;;8.37;5.93;;;;;;;10.70;100.00;100532.19;5084345;28;20226;-83
2023/09/01 04:48:41;;;;;;;5.50;5.00;;;;;;;10.67;100.00;100536.88;5082482;28;20576;-83
2023/09/01 04:51:09;;;;;;;6.70;5.40;;;;;;;10.63;100.00;100536.22;5083968;28;20790;-82
2023/09/01 04:53:35;;;;;;;6.43;5.53;;;;;;;10.62;100.00;100533.66;5085459;28;20226;-84
2023/09/01 04:56:02;;;;;;;10.20;6.17;;;;;;;10.61;100.00;100534.59;5081616;28;20201;-83
2023/09/01 04:58:29;;;;;;;9.63;6.47;;;;;;;10.60;100.00;100531.06;5093052;28;20303;-83
2023/09/01 05:00:56;;;;;;;8.17;6.03;;;;;;;10.63;100.00;100532.69;5092343;28;20202;-85
2023/09/01 05:03:24;;;;;;;6.93;6.23;;;;;;;10.63;100.00;100538.00;5089525;28;20201;-84
2023/09/01 05:05:50;;;;;;;8.30;6.70;;;;;;;10.65;100.00;100533.44;5091189;28;20252;-84
2023/09/01 05:08:19;;;;;;;6.70;6.10;;;;;;;10.66;100.00;100532.50;5085077;28;20654;-83
2023/09/01 05:10:45;;;;;;;9.23;7.47;;;;;;;10.67;100.00;100542.19;5091774;28;20517;-82
2023/09/01 05:13:11;;;;;;;8.80;6.27;;;;;;;10.69;100.00;100542.97;5092533;28;20214;-82
2023/09/01 05:15:38;;;;;;;6.20;5.20;;;;;;;10.70;100.00;100545.53;5086729;28;20207;-83
2023/09/01 05:18:05;;;;;;;6.13;4.17;;;;;;;10.69;100.00;100550.94;5093302;28;20208;-83
2023/09/01 05:20:31;;;;;;;4.60;4.13;;;;;;;10.66;100.00;100548.47;5088667;28;20658;-84
2023/09/01 05:22:58;;;;;;;7.57;4.33;;;;;;;10.57;100.00;100547.25;5085471;28;20577;-83
2023/09/01 05:25:26;;;;;;;5.77;4.23;;;;;;;10.54;100.00;100550.13;5087707;28;20224;-84
2023/09/01 05:27:53;;;;;;;5.00;4.53;;;;;;;10.52;100.00;100548.53;5090991;28;20579;-85
2023/09/01 05:30:20;;;;;;;5.40;4.90;;;;;;;10.55;100.00;100551.00;5082128;28;20277;-82
2023/09/01 05:32:46;;;;;;;6.40;5.13;;;;;;;10.59;100.00;100552.47;5088468;28;20206;-84
2023/09/01 05:35:13;;;;;;;6.03;5.17;;;;;;;10.66;100.00;100548.47;5083973;28;20204;-82
2023/09/01 05:37:39;;;;;;;5.10;4.50;;;;;;;10.71;100.00;100535.72;5091382;28;20210;-82
2023/09/01 05:40:07;;;;;;;5.57;4.70;;;;;;;10.79;100.00;100547.56;5086248;28;20221;-83
2023/09/01 05:42:35;;;;;;;7.73;5.37;;;;;;;10.90;100.00;100554.00;5083865;28;20206;-83
2023/09/01 05:45:02;;;;;;;6.43;5.83;;;;;;;10.98;100.00;100546.34;5092236;28;20231;-83
2023/09/01 05:47:28;;;;;;;7.53;5.77;;;;;;;11.07;100.00;100551.06;5087990;28;20209;-85
2023/09/01 05:49:57;;;;;;;6.80;6.07;;;;;;;11.20;100.00;100559.94;5095351;28;20222;-85
2023/09/01 05:52:25;;;;;;;7.73;6.10;;;;;;;11.31;100.00;100553.88;5093893;28;20206;-85
2023/09/01 05:54:51;;;;;;;6.60;5.87;;;;;;;11.41;100.00;100561.16;5092053;28;20201;-84
2023/09/01 05:57:18;;;;;;;6.40;5.50;;;;;;;11.50;100.00;100559.66;5086808;28;20209;-85
2023/09/01 05:59:46;;;;;;;7.60;5.90;;;;;;;11.61;100.00;100558.94;5087517;28;20226;-81
2023/09/01 06:02:12;;;;;;;6.00;5.40;;;;;;;11.73;100.00;100553.59;5080849;28;20200;-84
2023/09/01 06:04:39;;;;;;;8.57;5.53;;;;;;;11.86;100.00;100550.97;5090331;28;20207;-82
2023/09/01 06:07:05;;;;;;;5.63;5.07;;;;;;;11.99;100.00;100556.31;5088093;28;20208;-84
2023/09/01 06:09:32;;;;;;;5.50;4.77;;;;;;;12.09;100.00;100565.38;5086971;28;20685;-83
2023/09/01 06:11:59;;;;;;;5.57;4.90;;;;;;;12.16;100.00;100566.66;5090575;28;20226;-83
2023/09/01 06:14:25;;;;;;;6.27;4.73;;;;;;;12.22;100.00;100558.19;5091792;28;20595;-84
2023/09/01 06:16:53;;;;;;;6.40;5.00;;;;;;;12.27;100.00;100563.19;5090551;28;20601;-83
2023/09/01 06:19:20;;;;;;;7.03;5.10;;;;;;;12.32;100.00;100567.25;5088851;28;20239;-83
2023/09/01 06:21:46;;;;;;;4.90;4.07;;;;;;;12.37;100.00;100561.56;5084799;28;20205;-84
2023/09/01 06:24:13;;;;;;;5.13;4.63;;;;;;;12.44;100.00;100571.69;5087634;28;20210;-82
2023/09/01 06:26:39;;;;;;;4.77;4.27;;;;;;;12.57;100.00;100568.13;5084717;28;20375;-83
2023/09/01 06:29:05;;;;;;;5.07;4.40;;;;;;;12.68;100.00;100566.41;5087875;28;20228;-82
2023/09/01 06:31:32;;;;;;;5.87;4.70;;;;;;;12.84;100.00;100561.63;5084949;28;20588;-84
2023/09/01 06:34:00;;;;;;;8.73;4.47;;;;;;;12.98;100.00;100573.97;5082274;28;20234;-84
2023/09/01 06:36:26;;;;;;;6.00;4.23;;;;;;;13.13;100.00;100567.47;5087679;28;20208;-84
2023/09/01 06:38:53;;;;;;;5.43;4.47;;;;;;;13.28;100.00;100573.50;5091438;28;20225;-84
2023/09/01 06:41:19;;;;;;;7.57;4.43;;;;;;;13.45;100.00;100572.22;5090132;28;20231;-84
2023/09/01 06:43:45;;;;;;;6.83;4.03;;;;;;;13.60;100.00;100579.09;5086565;28;20200;-82
2023/09/01 06:46:14;;;;;;;7.13;3.63;;;;;;;13.75;100.00;100569.03;5099080;28;20228;-82
2023/09/01 06:48:40;;;;;;;6.80;4.07;;;;;;;13.89;100.00;100580.34;5086362;28;20754;-84
2023/09/01 06:51:08;;;;;;;5.13;3.93;;;;;;;14.01;100.00;100570.50;5084065;28;20200;-83
2023/09/01 06:53:35;;;;;;;5.00;3.80;;;;;;;14.17;100.00;100579.00;5090373;28;20205;-83
2023/09/01 06:56:01;;;;;;;5.17;3.97;;;;;;;14.32;100.00;100578.78;5086528;28;20211;-84
2023/09/01 06:58:28;;;;;;;3.83;3.50;;;;;;;14.47;99.70;100575.75;5093890;28;20231;-84
2023/09/01 07:00:54;;;;;;;5.00;3.33;;;;;;;14.66;98.45;100576.94;5086661;28;20214;-83
2023/09/01 07:03:21;;;;;;;7.23;3.90;;;;;;;14.82;97.24;100577.41;5085644;28;20643;-83
2023/09/01 07:05:55;;;;;;;7.40;3.80;;;;;;;14.97;94.67;100580.63;5087531;28;20236;-83
2023/09/01 07:08:23;;;;;;;4.90;3.20;;;;;;;15.01;92.60;100580.28;5081906;28;20210;-83
2023/09/01 07:10:49;;;;;;;5.37;3.40;;;;;;;15.01;91.78;100588.31;5087841;28;20684;-83
2023/09/01 07:13:16;;;;;;;6.53;3.10;;;;;;;15.04;91.74;100590.75;5087757;28;20289;-83
2023/09/01 07:15:48;;;;;;;3.97;2.77;;;;;;;15.12;91.66;100592.78;5083412;28;20207;-83
2023/09/01 07:18:14;;;;;;;7.03;3.13;;;;;;;15.20;90.28;100588.50;5087091;28;20201;-83
2023/09/01 07:20:41;;;;;;;6.20;3.20;;;;;;;15.26;89.09;100587.09;5084989;28;20589;-82
2023/09/01 07:23:07;;;;;;;4.63;3.27;;;;;;;15.36;90.38;100585.38;5088573;28;20201;-82
2023/09/01 07:25:35;;;;;;;4.37;2.83;;;;;;;15.50;90.43;100587.72;5084179;28;20699;-82
2023/09/01 07:28:01;;;;;;;5.00;3.13;;;;;;;15.61;89.07;100576.94;5090467;28;20210;-83
2023/09/01 07:30:32;;;;;;;4.47;2.90;;;;;;;15.74;88.29;100579.47;5081123;28;20650;-82
2023/09/01 07:32:58;;;;;;;4.63;3.00;;;;;;;15.88;87.99;100584.47;5088493;28;20194;-83
2023/09/01 07:35:25;;;;;;;6.77;3.00;;;;;;;16.05;88.03;100577.66;5089492;28;20214;-81
2023/09/01 07:37:51;;;;;;;4.87;3.27;;;;;;;16.17;85.01;100578.41;5088266;28;20207;-82
2023/09/01 07:40:18;;;;;;;4.60;2.83;;;;;;;16.25;84.62;100579.44;5089052;28;20597;-83
2023/09/01 07:42:46;;;;;;;4.70;3.00;;;;;;;16.40;84.35;100595.19;5091585;28;20408;-83
2023/09/01 07:45:12;;;;;;;4.53;2.50;;;;;;;16.53;81.00;100595.78;5093439;28;20209;-83
2023/09/01 07:47:39;;;;;;;3.83;2.20;;;;;;;16.69;80.85;100595.31;5090691;28;20211;-82
2023/09/01 07:50:06;;;;;;;4.47;2.43;;;;;;;16.77;78.99;100592.78;5093559;28;20709;-83
2023/09/01 07:52:33;;;;;;;3.67;1.80;;;;;;;16.86;78.17;100600.84;5094343;28;20213;-83
2023/09/01 07:54:59;;;;;;;3.80;2.43;;;;;;;17.00;78.74;100599.63;5091294;28;20208;-82
2023/09/01 07:57:26;;;;;;;3.57;2.37;;;;;;;17.14;77.17;100599.22;5088096;28;20198;-81
2023/09/01 07:59:54;;;;;;;3.63;2.40;;;;;;;17.29;75.62;100596.94;5091351;28;20232;-83
2023/09/01 08:02:20;;;;;;;3.60;2.20;;;;;;;17.38;76.36;100598.78;5089083;28;20215;-83
2023/09/01 08:04:54;;;;;;;4.37;2.53;;;;;;;17.50;76.33;100591.44;5089172;28;20218;-84
2023/09/01 08:07:20;;;;;;;4.57;2.60;;;;;;;17.65;75.95;100592.72;5084768;28;20245;-84
2023/09/01 08:09:47;;;;;;;5.37;1.97;;;;;;;17.78;74.74;100590.56;5094152;28;20221;-84
2023/09/01 08:12:13;;;;;;;3.60;2.43;;;;;;;17.91;73.60;100584.88;5093340;28;20215;-83
2023/09/01 08:14:40;;;;;;;4.23;2.40;;;;;;;18.04;72.98;100583.56;5090967;28;20222;-83
2023/09/01 08:17:08;;;;;;;5.10;2.40;;;;;;;18.20;70.50;100574.00;5090106;28;20230;-83
2023/09/01 08:19:34;;;;;;;5.50;2.43;;;;;;;18.26;70.59;100578.81;5093782;28;20223;-83
2023/09/01 08:22:02;;;;;;;4.33;2.30;;;;;;;18.34;70.60;100576.19;5086513;28;20219;-81
2023/09/01 08:24:28;;;;;;;3.50;2.33;;;;;;;18.44;69.39;100587.81;5086076;28;20213;-83
2023/09/01 08:26:54;;;;;;;4.37;2.50;;;;;;;18.50;68.47;100581.78;5093157;28;20623;-83
2023/09/01 08:29:21;;;;;;;5.77;2.10;;;;;;;18.61;68.37;100573.56;5087278;28;20610;-82
2023/09/01 08:31:47;;;;;;;5.63;2.30;;;;;;;18.72;67.10;100576.03;5094522;28;20209;-82
2023/09/01 08:34:15;;;;;;;3.87;2.40;;;;;;;18.80;64.89;100569.91;5091243;28;20226;-82
2023/09/01 08:36:43;;;;;;;5.70;2.67;;;;;;;18.90;64.72;100575.22;5093690;28;20198;-82
2023/09/01 08:39:09;;;;;;;3.60;2.17;;;;;;;18.93;65.05;100575.75;5087451;28;20228;-82
2023/09/01 08:41:40;;;;;;;4.00;2.40;;;;;;;18.99;65.10;100572.44;5092901;28;20201;-81
2023/09/01 08:44:08;;;;;;;4.37;2.40;;;;;;;19.08;64.96;100571.53;5094496;28;20207;-82
2023/09/01 08:46:36;;;;;;;3.57;2.10;;;;;;;19.21;64.77;100567.59;5093668;28;20318;-83
2023/09/01 08:49:04;;;;;;;6.60;2.50;;;;;;;19.27;64.24;100570.53;5087743;28;20602;-82
2023/09/01 08:51:32;;;;;;;6.43;2.50;;;;;;;19.37;64.47;100565.88;5092680;28;20210;-82
2023/09/01 08:54:00;;;;;;;4.27;2.30;;;;;;;19.48;63.34;100564.81;5093412;28;20580;-81
2023/09/01 08:56:26;;;;;;;5.13;2.23;;;;;;;19.61;63.57;100567.13;5090140;28;20204;-82
2023/09/01 08:58:53;;;;;;;4.47;2.03;;;;;;;19.74;63.24;100567.53;5095428;28;20232;-82
2023/09/01 09:01:20;;;;;;;5.17;2.70;;;;;;;19.82;62.07;100556.81;5088317;28;20215;-82
2023/09/01 09:03:47;;;;;;;5.33;2.60;;;;;;;19.90;61.42;100559.53;5087811;28;20298;-82
2023/09/01 09:06:13;;;;;;;5.17;2.43;;;;;;;20.02;61.90;100554.72;5088154;28;20220;-82
2023/09/01 09:08:41;;;;;;;4.73;2.33;;;;;;;20.13;59.97;100553.59;5092076;28;20219;-82
2023/09/01 09:11:13;;;;;;;3.63;2.35;;;;;;;20.23;60.03;100560.59;5086862;28;20232;-83
2023/09/01 09:13:40;;;;;;;4.72;2.47;;;;;;;20.31;60.49;100560.63;5086781;28;20200;-82
2023/09/01 09:16:08;;;;;;;4.03;2.53;;;;;;;20.40;60.34;100564.25;5092824;28;20219;-82
2023/09/01 09:18:34;;;;;;;4.87;3.00;;;;;;;20.46;60.11;100569.00;5093978;28;20224;-83
2023/09/01 09:21:01;;;;;;;5.38;2.30;;;;;;;20.60;60.23;100557.53;5085512;28;20211;-82
2023/09/01 09:23:43;;;;;;;6.78;2.50;;;;;;;20.77;58.37;100551.19;5088803;28;20680;-82
2023/09/01 09:26:10;;;;;;;6.63;3.33;;;;;;;20.92;57.97;100553.25;5090054;28;20816;-82
2023/09/01 09:28:37;;;;;;;5.53;3.13;;;;;;;21.02;56.28;100556.66;5092730;28;20228;-83
2023/09/01 09:31:03;;;;;;;5.43;2.72;;;;;;;21.07;57.68;100559.72;5090966;28;20230;-83
2023/09/01 09:33:32;;;;;;;6.60;3.53;;;;;;;21.14;57.48;100552.59;5090834;28;20238;-84
2023/09/01 09:35:59;;;;;;;5.40;2.60;;;;;;;21.27;58.15;100547.59;5089230;28;20211;-84
2023/09/01 09:38:39;;;;;;;5.53;2.20;;;;;;;21.34;58.13;100540.44;5092869;28;20730;-83
2023/09/01 09:41:07;;;;;;;4.45;2.25;;;;;;;21.34;54.54;100554.00;5091888;28;20212;-82
2023/09/01 09:43:45;;;;;;;6.30;2.05;;;;;;;21.32;55.29;100556.03;5094374;28;20204;-84
2023/09/01 09:46:12;;;;;;;3.85;1.85;;;;;;;21.35;55.61;100550.28;5091840;28;20216;-84
2023/09/01 09:48:39;;;;;;;5.50;2.13;;;;;;;21.42;54.10;100555.88;5088235;28;20599;-84
2023/09/01 09:51:07;;;;;;;7.60;2.10;;;;;;;21.40;53.84;100553.34;5089927;28;20208;-83
2023/09/01 09:53:35;;;;;;;3.00;1.90;;;;;;;21.46;53.03;100554.53;5090696;28;20239;-83
2023/09/01 09:56:16;;;;;;;4.05;2.05;;;;;;;21.37;53.81;100556.38;5091215;28;20228;-82
2023/09/01 09:58:46;;;;;;;5.90;2.38;;;;;;;21.41;53.09;100565.00;5094471;28;20231;-83
2023/09/01 10:01:16;;;;;;;4.22;2.00;;;;;;;21.30;52.41;100565.38;5099753;28;20603;-83
2023/09/01 10:03:44;;;;;;;5.18;1.70;;;;;;;21.22;52.85;100568.91;5088059;28;20681;-83
2023/09/01 10:06:11;;;;;;;3.88;1.67;;;;;;;21.26;53.83;100569.41;5095036;28;20600;-83
2023/09/01 10:08:38;;;;;;;3.63;2.00;;;;;;;21.28;53.90;100570.94;5096797;28;20635;-82
2023/09/01 10:11:07;;;;;;;3.22;1.77;;;;;;;21.30;54.68;100566.22;5088386;28;20208;-83
2023/09/01 10:13:37;;;;;;;3.88;1.85;;;;;;;21.33;54.33;100571.25;5086110;28;20228;-83
2023/09/01 10:16:05;;;;;;;4.75;2.00;;;;;;;21.32;54.44;100569.56;5086040;28;20200;-82
2023/09/01 10:18:34;;;;;;;5.90;1.80;;;;;;;21.39;55.00;100562.47;5088239;28;20700;-83
2023/09/01 10:21:01;;;;;;;4.50;2.13;;;;;;;21.46;55.22;100573.50;5090954;28;20214;-83
2023/09/01 10:23:27;;;;;;;2.47;1.60;;;;;;;21.46;56.10;100579.75;5093968;28;20691;-82
2023/09/01 10:26:14;;;;;;;4.40;1.63;;;;;;;21.54;55.95;100583.47;5091427;28;20208;-82
2023/09/01 10:29:00;;;;;;;5.80;1.70;;;;;;;21.60;56.04;100580.09;5090439;28;20253;-82
2023/09/01 10:31:27;;;;;;;2.63;1.80;;;;;;;21.64;56.51;100581.44;5091887;28;20211;-83
2023/09/01 10:34:04;;;;;;;4.25;1.90;;;;;;;21.70;56.28;100580.75;5093099;28;20203;-81
2023/09/01 10:36:31;;;;;;;3.10;1.70;;;;;;;21.73;56.03;100583.13;5091223;28;20196;-83
2023/09/01 10:39:21;;;;;;;3.55;2.15;;;;;;;21.71;55.84;100587.88;5094025;28;20227;-83
2023/09/01 10:41:52;;;;;;;2.65;1.48;;;;;;;21.71;55.35;100588.72;5089653;28;20230;-82
2023/09/01 10:44:21;;;;;;;2.88;1.60;;;;;;;21.75;55.49;100584.66;5093299;28;20208;-84
2023/09/01 10:46:47;;;;;;;2.60;1.42;;;;;;;21.77;55.31;100587.19;5094911;28;20712;-82
2023/09/01 10:49:14;;;;;;;2.75;1.33;;;;;;;21.79;55.55;100598.72;5091375;28;20218;-83
2023/09/01 10:51:40;;;;;;;3.55;1.50;;;;;;;21.80;55.10;100592.28;5094001;28;20196;-83
2023/09/01 10:54:40;;;;;;;1.27;1.17;;;;;;;21.87;55.57;100592.41;5091078;28;20212;-84
2023/09/01 10:57:12;;;;;;;5.10;1.60;;;;;;;21.85;55.93;100586.34;5073641;28;20630;-83
2023/09/01 10:59:40;;;;;;;3.17;1.33;;;;;;;21.80;56.09;100589.56;5095673;28;20224;-82
2023/09/01 11:02:20;;;;;;;1.63;1.00;;;;;;;21.76;56.22;100583.63;5092876;28;20208;-83
2023/09/01 11:04:47;;;;;;;2.47;1.15;;;;;;;21.75;56.71;100584.66;5090492;28;20247;-83
2023/09/01 11:07:14;;;;;;;3.03;1.20;;;;;;;21.70;56.32;100583.47;5089071;28;20230;-83
2023/09/01 11:09:52;;;;;;;2.97;1.40;;;;;;;21.63;56.78;100579.75;5086779;28;20310;-83
2023/09/01 11:12:19;;;;;;;2.42;1.15;;;;;;;21.60;57.22;100577.38;5090046;28;20192;-83
2023/09/01 11:14:59;;;;;;;2.80;1.27;;;;;;;21.61;57.57;100577.22;5095358;28;20204;-84
2023/09/01 11:17:37;;;;;;;4.05;1.60;;;;;;;21.63;57.54;100579.75;5092262;28;20283;-82
2023/09/01 11:20:05;;;;;;;2.13;1.20;;;;;;;21.62;58.04;100578.91;5095552;28;20259;-84
2023/09/01 11:22:34;;;;;;;1.27;0.75;;;;;;;21.65;58.34;100584.00;5097091;28;20701;-84
2023/09/01 11:25:00;;;;;;;1.60;1.17;;;;;;;21.66;57.55;100584.84;5100055;28;20204;-84